< < Back
Terminal Aerodrome Forecast


Current Version              Previous Versions:   1  2  3  4  5  6  7  8  9  

Terminal Aerodrome Forecast

523
FTUS42 KFFC 230500
TAFATL
TAF
KATL 230526Z 2306/2412 09003KT P6SM FEW015 SCT100
     FM230900 00000KT P6SM SCT006 SCT080
      TEMPO 2310/2314 BKN006
     FM231400 27004KT P6SM SCT025
     FM231700 26006KT P6SM VCSH SCT035 BKN050 PROB30 2319/2323 4SM
      -TSRA BR BKN035CB
     FM240000 29005KT P6SM SCT040 SCT080
     FM240900 27005KT P6SM SCT020=

Latest METAR

267
SAUS70 KWBC 231400 RRA
MTRATL
METAR KATL 231352Z 00000KT 10SM SCT020TCU 27/21 A3013 RMK AO2 SLP191 TCU
N-NE & SW-NW T02670211


USA.gov is the U.S. government's official web portal to all federal, state and local government web resources and services.